sensor_id;sensor_type;location;lat;lon;timestamp;P1;durP1;ratioP1;P2;durP2;ratioP2
2544;SDS011;36212;48.838;9.142;2023-01-15T00:02:24;1.50;;;1.40;;
2544;SDS011;36212;48.838;9.142;2023-01-15T00:04:56;1.30;;;1.20;;
2544;SDS011;36212;48.838;9.142;2023-01-15T00:07:32;1.55;;;1.20;;
2544;SDS011;36212;48.838;9.142;2023-01-15T00:10:04;1.10;;;1.00;;
2544;SDS011;36212;48.838;9.142;2023-01-15T00:12:37;1.35;;;1.25;;
2544;SDS011;36212;48.838;9.142;2023-01-15T00:15:09;1.30;;;1.20;;
2544;SDS011;36212;48.838;9.142;2023-01-15T00:17:44;1.70;;;1.20;;
2544;SDS011;36212;48.838;9.142;2023-01-15T00:20:17;1.10;;;1.00;;
2544;SDS011;36212;48.838;9.142;2023-01-15T00:22:49;1.17;;;1.08;;
2544;SDS011;36212;48.838;9.142;2023-01-15T00:25:21;1.42;;;1.33;;
2544;SDS011;36212;48.838;9.142;2023-01-15T00:28:31;1.30;;;1.20;;
2544;SDS011;36212;48.838;9.142;2023-01-15T00:31:03;2.80;;;1.23;;
2544;SDS011;36212;48.838;9.142;2023-01-15T00:33:35;1.10;;;1.00;;
2544;SDS011;36212;48.838;9.142;2023-01-15T00:36:07;1.23;;;1.10;;
2544;SDS011;36212;48.838;9.142;2023-01-15T00:38:39;1.10;;;1.02;;
2544;SDS011;36212;48.838;9.142;2023-01-15T00:41:11;1.20;;;1.10;;
2544;SDS011;36212;48.838;9.142;2023-01-15T00:43:43;1.00;;;1.00;;
2544;SDS011;36212;48.838;9.142;2023-01-15T00:46:18;1.20;;;1.10;;
2544;SDS011;36212;48.838;9.142;2023-01-15T00:48:50;1.20;;;1.10;;
2544;SDS011;36212;48.838;9.142;2023-01-15T00:51:22;1.10;;;1.00;;
2544;SDS011;36212;48.838;9.142;2023-01-15T00:53:54;0.90;;;0.90;;
2544;SDS011;36212;48.838;9.142;2023-01-15T00:56:26;1.00;;;1.00;;
2544;SDS011;36212;48.838;9.142;2023-01-15T00:59:02;1.10;;;1.00;;
2544;SDS011;36212;48.838;9.142;2023-01-15T01:01:35;1.00;;;0.90;;
2544;SDS011;36212;48.838;9.142;2023-01-15T01:04:08;1.15;;;1.05;;
2544;SDS011;36212;48.838;9.142;2023-01-15T01:06:40;0.93;;;0.93;;
2544;SDS011;36212;48.838;9.142;2023-01-15T01:09:13;1.23;;;1.10;;
2544;SDS011;36212;48.838;9.142;2023-01-15T01:11:47;1.52;;;1.20;;
2544;SDS011;36212;48.838;9.142;2023-01-15T01:14:20;1.08;;;1.00;;
2544;SDS011;36212;48.838;9.142;2023-01-15T01:16:52;1.10;;;1.00;;
2544;SDS011;36212;48.838;9.142;2023-01-15T01:19:24;1.23;;;1.10;;
2544;SDS011;36212;48.838;9.142;2023-01-15T01:21:58;0.90;;;0.90;;
2544;SDS011;36212;48.838;9.142;2023-01-15T01:24:30;1.25;;;1.15;;
2544;SDS011;36212;48.838;9.142;2023-01-15T01:27:02;1.60;;;1.05;;
2544;SDS011;36212;48.838;9.142;2023-01-15T01:29:34;1.38;;;1.10;;
2544;SDS011;36212;48.838;9.142;2023-01-15T01:32:06;1.25;;;1.10;;
2544;SDS011;36212;48.838;9.142;2023-01-15T01:34:38;1.20;;;1.10;;
2544;SDS011;36212;48.838;9.142;2023-01-15T01:37:10;0.95;;;0.95;;
2544;SDS011;36212;48.838;9.142;2023-01-15T01:39:42;1.10;;;1.00;;
2544;SDS011;36212;48.838;9.142;2023-01-15T01:42:16;1.00;;;0.90;;
2544;SDS011;36212;48.838;9.142;2023-01-15T01:47:30;1.10;;;1.00;;
2544;SDS011;36212;48.838;9.142;2023-01-15T01:50:06;1.10;;;1.00;;
2544;SDS011;36212;48.838;9.142;2023-01-15T01:52:53;1.10;;;1.00;;
2544;SDS011;36212;48.838;9.142;2023-01-15T01:55:33;0.90;;;0.90;;
2544;SDS011;36212;48.838;9.142;2023-01-15T01:58:06;1.05;;;0.95;;
2544;SDS011;36212;48.838;9.142;2023-01-15T02:01:01;1.10;;;0.90;;
2544;SDS011;36212;48.838;9.142;2023-01-15T02:03:34;1.05;;;0.95;;
2544;SDS011;36212;48.838;9.142;2023-01-15T02:06:09;0.90;;;0.90;;
2544;SDS011;36212;48.838;9.142;2023-01-15T02:08:43;1.00;;;0.90;;
2544;SDS011;36212;48.838;9.142;2023-01-15T02:11:15;0.80;;;0.80;;
2544;SDS011;36212;48.838;9.142;2023-01-15T02:20:27;1.20;;;1.10;;
2544;SDS011;36212;48.838;9.142;2023-01-15T02:32:50;0.95;;;0.90;;
2544;SDS011;36212;48.838;9.142;2023-01-15T02:35:39;0.90;;;0.90;;
2544;SDS011;36212;48.838;9.142;2023-01-15T02:38:20;1.20;;;1.10;;
2544;SDS011;36212;48.838;9.142;2023-01-15T02:40:58;1.00;;;1.00;;
2544;SDS011;36212;48.838;9.142;2023-01-15T02:43:35;1.10;;;1.00;;
2544;SDS011;36212;48.838;9.142;2023-01-15T02:46:09;0.90;;;0.90;;
2544;SDS011;36212;48.838;9.142;2023-01-15T02:48:45;0.95;;;0.95;;
2544;SDS011;36212;48.838;9.142;2023-01-15T02:51:23;0.80;;;0.80;;
2544;SDS011;36212;48.838;9.142;2023-01-15T02:54:07;0.80;;;0.80;;
2544;SDS011;36212;48.838;9.142;2023-01-15T02:56:45;0.80;;;0.80;;
2544;SDS011;36212;48.838;9.142;2023-01-15T02:59:22;0.90;;;0.90;;
2544;SDS011;36212;48.838;9.142;2023-01-15T03:02:04;0.90;;;0.90;;
2544;SDS011;36212;48.838;9.142;2023-01-15T03:07:50;0.80;;;0.80;;
2544;SDS011;36212;48.838;9.142;2023-01-15T03:19:22;0.90;;;0.90;;
2544;SDS011;36212;48.838;9.142;2023-01-15T03:22:01;1.38;;;0.80;;
2544;SDS011;36212;48.838;9.142;2023-01-15T03:24:54;1.73;;;0.80;;
2544;SDS011;36212;48.838;9.142;2023-01-15T03:27:36;1.20;;;1.10;;
2544;SDS011;36212;48.838;9.142;2023-01-15T03:30:12;0.80;;;0.80;;
2544;SDS011;36212;48.838;9.142;2023-01-15T03:32:48;1.60;;;0.90;;
2544;SDS011;36212;48.838;9.142;2023-01-15T03:35:38;0.80;;;0.80;;
2544;SDS011;36212;48.838;9.142;2023-01-15T03:38:21;0.80;;;0.80;;
2544;SDS011;36212;48.838;9.142;2023-01-15T03:50:38;1.00;;;1.00;;
2544;SDS011;36212;48.838;9.142;2023-01-15T03:53:19;1.00;;;0.90;;
2544;SDS011;36212;48.838;9.142;2023-01-15T03:59:06;0.98;;;0.88;;
2544;SDS011;36212;48.838;9.142;2023-01-15T04:02:07;0.90;;;0.90;;
2544;SDS011;36212;48.838;9.142;2023-01-15T04:04:42;0.90;;;0.90;;
2544;SDS011;36212;48.838;9.142;2023-01-15T04:07:16;0.90;;;0.90;;
2544;SDS011;36212;48.838;9.142;2023-01-15T04:09:49;1.20;;;1.10;;
2544;SDS011;36212;48.838;9.142;2023-01-15T04:12:22;1.00;;;0.90;;
2544;SDS011;36212;48.838;9.142;2023-01-15T04:14:54;0.80;;;0.80;;
2544;SDS011;36212;48.838;9.142;2023-01-15T04:17:27;1.10;;;0.80;;
2544;SDS011;36212;48.838;9.142;2023-01-15T04:19:59;1.02;;;0.95;;
2544;SDS011;36212;48.838;9.142;2023-01-15T04:22:30;1.08;;;1.00;;
2544;SDS011;36212;48.838;9.142;2023-01-15T04:25:03;0.88;;;0.85;;
2544;SDS011;36212;48.838;9.142;2023-01-15T04:27:37;1.00;;;0.90;;
2544;SDS011;36212;48.838;9.142;2023-01-15T04:30:09;0.90;;;0.90;;
2544;SDS011;36212;48.838;9.142;2023-01-15T04:32:42;2.95;;;0.90;;
2544;SDS011;36212;48.838;9.142;2023-01-15T04:35:18;0.80;;;0.80;;
2544;SDS011;36212;48.838;9.142;2023-01-15T04:37:57;0.77;;;0.77;;
2544;SDS011;36212;48.838;9.142;2023-01-15T04:40:30;1.00;;;0.90;;
2544;SDS011;36212;48.838;9.142;2023-01-15T04:43:40;0.80;;;0.80;;
2544;SDS011;36212;48.838;9.142;2023-01-15T04:46:39;0.80;;;0.80;;
2544;SDS011;36212;48.838;9.142;2023-01-15T04:49:15;0.90;;;0.80;;
2544;SDS011;36212;48.838;9.142;2023-01-15T04:51:48;1.00;;;0.90;;
2544;SDS011;36212;48.838;9.142;2023-01-15T04:54:20;2.10;;;1.00;;
2544;SDS011;36212;48.838;9.142;2023-01-15T04:56:53;0.80;;;0.80;;
2544;SDS011;36212;48.838;9.142;2023-01-15T04:59:26;0.90;;;0.90;;
2544;SDS011;36212;48.838;9.142;2023-01-15T05:01:58;0.80;;;0.80;;
2544;SDS011;36212;48.838;9.142;2023-01-15T05:04:37;0.80;;;0.80;;
2544;SDS011;36212;48.838;9.142;2023-01-15T05:07:09;1.13;;;1.02;;
2544;SDS011;36212;48.838;9.142;2023-01-15T05:09:41;0.90;;;0.90;;
2544;SDS011;36212;48.838;9.142;2023-01-15T05:12:13;0.80;;;0.80;;
2544;SDS011;36212;48.838;9.142;2023-01-15T05:14:45;1.10;;;1.00;;
2544;SDS011;36212;48.838;9.142;2023-01-15T05:17:17;1.00;;;0.80;;
2544;SDS011;36212;48.838;9.142;2023-01-15T05:19:49;1.10;;;1.00;;
2544;SDS011;36212;48.838;9.142;2023-01-15T05:22:21;1.70;;;1.00;;
2544;SDS011;36212;48.838;9.142;2023-01-15T05:24:53;0.80;;;0.80;;
2544;SDS011;36212;48.838;9.142;2023-01-15T05:27:25;1.20;;;1.10;;
2544;SDS011;36212;48.838;9.142;2023-01-15T05:29:57;1.00;;;0.93;;
2544;SDS011;36212;48.838;9.142;2023-01-15T05:32:29;1.20;;;1.10;;
2544;SDS011;36212;48.838;9.142;2023-01-15T05:35:01;1.30;;;1.20;;
2544;SDS011;36212;48.838;9.142;2023-01-15T05:37:33;1.50;;;1.40;;
2544;SDS011;36212;48.838;9.142;2023-01-15T05:40:05;1.58;;;1.48;;
2544;SDS011;36212;48.838;9.142;2023-01-15T05:42:38;1.45;;;1.35;;
2544;SDS011;36212;48.838;9.142;2023-01-15T05:45:10;1.40;;;1.30;;
2544;SDS011;36212;48.838;9.142;2023-01-15T05:47:42;1.38;;;1.17;;
2544;SDS011;36212;48.838;9.142;2023-01-15T05:50:14;1.50;;;1.40;;
2544;SDS011;36212;48.838;9.142;2023-01-15T05:52:47;1.52;;;1.42;;
2544;SDS011;36212;48.838;9.142;2023-01-15T05:55:19;1.40;;;1.30;;
2544;SDS011;36212;48.838;9.142;2023-01-15T05:57:50;1.63;;;1.52;;
2544;SDS011;36212;48.838;9.142;2023-01-15T06:00:23;1.50;;;1.40;;
2544;SDS011;36212;48.838;9.142;2023-01-15T06:02:56;1.45;;;1.35;;
2544;SDS011;36212;48.838;9.142;2023-01-15T06:05:28;1.30;;;1.20;;
2544;SDS011;36212;48.838;9.142;2023-01-15T06:08:00;1.20;;;1.10;;
2544;SDS011;36212;48.838;9.142;2023-01-15T06:10:32;1.25;;;1.15;;
2544;SDS011;36212;48.838;9.142;2023-01-15T06:13:04;1.20;;;1.10;;
2544;SDS011;36212;48.838;9.142;2023-01-15T06:15:35;1.30;;;1.20;;
2544;SDS011;36212;48.838;9.142;2023-01-15T06:18:08;1.05;;;1.00;;
2544;SDS011;36212;48.838;9.142;2023-01-15T06:20:40;1.10;;;1.00;;
2544;SDS011;36212;48.838;9.142;2023-01-15T06:23:13;0.90;;;0.90;;
2544;SDS011;36212;48.838;9.142;2023-01-15T06:25:46;1.00;;;0.90;;
2544;SDS011;36212;48.838;9.142;2023-01-15T06:28:18;0.95;;;0.95;;
2544;SDS011;36212;48.838;9.142;2023-01-15T06:30:50;1.13;;;1.00;;
2544;SDS011;36212;48.838;9.142;2023-01-15T06:33:22;0.90;;;0.90;;
2544;SDS011;36212;48.838;9.142;2023-01-15T06:35:55;1.10;;;1.00;;
2544;SDS011;36212;48.838;9.142;2023-01-15T06:38:27;0.93;;;0.90;;
2544;SDS011;36212;48.838;9.142;2023-01-15T06:41:02;0.90;;;0.90;;
2544;SDS011;36212;48.838;9.142;2023-01-15T06:44:16;1.10;;;1.00;;
2544;SDS011;36212;48.838;9.142;2023-01-15T06:47:27;1.00;;;1.00;;
2544;SDS011;36212;48.838;9.142;2023-01-15T06:49:59;0.90;;;0.90;;
2544;SDS011;36212;48.838;9.142;2023-01-15T06:52:32;0.90;;;0.90;;
2544;SDS011;36212;48.838;9.142;2023-01-15T06:55:04;0.90;;;0.90;;
2544;SDS011;36212;48.838;9.142;2023-01-15T06:57:37;0.90;;;0.90;;
2544;SDS011;36212;48.838;9.142;2023-01-15T07:00:10;1.10;;;1.00;;
2544;SDS011;36212;48.838;9.142;2023-01-15T07:02:44;1.48;;;0.90;;
2544;SDS011;36212;48.838;9.142;2023-01-15T07:05:16;1.00;;;1.00;;
2544;SDS011;36212;48.838;9.142;2023-01-15T07:07:48;1.00;;;1.00;;
2544;SDS011;36212;48.838;9.142;2023-01-15T07:10:20;0.90;;;0.90;;
2544;SDS011;36212;48.838;9.142;2023-01-15T07:12:52;0.90;;;0.90;;
2544;SDS011;36212;48.838;9.142;2023-01-15T07:15:24;0.90;;;0.90;;
2544;SDS011;36212;48.838;9.142;2023-01-15T07:17:56;0.80;;;0.80;;
2544;SDS011;36212;48.838;9.142;2023-01-15T07:20:28;1.00;;;1.00;;
2544;SDS011;36212;48.838;9.142;2023-01-15T07:23:00;0.90;;;0.90;;
2544;SDS011;36212;48.838;9.142;2023-01-15T07:25:32;1.10;;;1.00;;
2544;SDS011;36212;48.838;9.142;2023-01-15T07:28:04;1.00;;;0.90;;
2544;SDS011;36212;48.838;9.142;2023-01-15T07:30:36;0.90;;;0.90;;
2544;SDS011;36212;48.838;9.142;2023-01-15T07:33:08;1.00;;;1.00;;
2544;SDS011;36212;48.838;9.142;2023-01-15T07:35:41;1.00;;;1.00;;
2544;SDS011;36212;48.838;9.142;2023-01-15T07:38:13;1.00;;;0.90;;
2544;SDS011;36212;48.838;9.142;2023-01-15T07:40:45;0.90;;;0.90;;
2544;SDS011;36212;48.838;9.142;2023-01-15T07:43:57;1.40;;;1.30;;
2544;SDS011;36212;48.838;9.142;2023-01-15T07:47:15;1.10;;;1.00;;
2544;SDS011;36212;48.838;9.142;2023-01-15T07:50:29;1.30;;;1.20;;
2544;SDS011;36212;48.838;9.142;2023-01-15T07:53:01;1.00;;;1.00;;
2544;SDS011;36212;48.838;9.142;2023-01-15T07:55:34;1.00;;;1.00;;
2544;SDS011;36212;48.838;9.142;2023-01-15T07:58:06;0.90;;;0.90;;
2544;SDS011;36212;48.838;9.142;2023-01-15T08:00:38;1.00;;;1.00;;
2544;SDS011;36212;48.838;9.142;2023-01-15T08:03:12;1.00;;;1.00;;
2544;SDS011;36212;48.838;9.142;2023-01-15T08:05:44;1.00;;;1.00;;
2544;SDS011;36212;48.838;9.142;2023-01-15T08:08:16;0.90;;;0.90;;
2544;SDS011;36212;48.838;9.142;2023-01-15T08:10:49;1.10;;;1.10;;
2544;SDS011;36212;48.838;9.142;2023-01-15T08:13:59;1.10;;;1.00;;
2544;SDS011;36212;48.838;9.142;2023-01-15T08:17:12;0.90;;;0.90;;
2544;SDS011;36212;48.838;9.142;2023-01-15T08:19:45;1.00;;;1.00;;
2544;SDS011;36212;48.838;9.142;2023-01-15T08:22:17;1.10;;;1.00;;
2544;SDS011;36212;48.838;9.142;2023-01-15T08:24:49;1.00;;;1.00;;
2544;SDS011;36212;48.838;9.142;2023-01-15T08:27:21;0.93;;;0.93;;
2544;SDS011;36212;48.838;9.142;2023-01-15T08:29:53;0.90;;;0.90;;
2544;SDS011;36212;48.838;9.142;2023-01-15T08:32:27;1.00;;;1.00;;
2544;SDS011;36212;48.838;9.142;2023-01-15T08:34:59;1.23;;;1.00;;
2544;SDS011;36212;48.838;9.142;2023-01-15T08:37:31;1.10;;;1.10;;
2544;SDS011;36212;48.838;9.142;2023-01-15T08:40:03;0.90;;;0.90;;
2544;SDS011;36212;48.838;9.142;2023-01-15T08:42:38;0.90;;;0.90;;
2544;SDS011;36212;48.838;9.142;2023-01-15T08:45:11;0.90;;;0.90;;
2544;SDS011;36212;48.838;9.142;2023-01-15T08:47:43;2.35;;;1.05;;
2544;SDS011;36212;48.838;9.142;2023-01-15T08:50:15;1.30;;;0.90;;
2544;SDS011;36212;48.838;9.142;2023-01-15T08:52:48;1.00;;;1.00;;
2544;SDS011;36212;48.838;9.142;2023-01-15T08:55:20;1.00;;;1.00;;
2544;SDS011;36212;48.838;9.142;2023-01-15T08:57:52;1.00;;;1.00;;
2544;SDS011;36212;48.838;9.142;2023-01-15T09:00:31;1.10;;;1.00;;
2544;SDS011;36212;48.838;9.142;2023-01-15T09:03:03;0.90;;;0.90;;
2544;SDS011;36212;48.838;9.142;2023-01-15T09:05:35;1.05;;;1.00;;
2544;SDS011;36212;48.838;9.142;2023-01-15T09:08:08;1.45;;;1.23;;
2544;SDS011;36212;48.838;9.142;2023-01-15T09:10:40;1.02;;;1.00;;
2544;SDS011;36212;48.838;9.142;2023-01-15T09:13:12;0.93;;;0.93;;
2544;SDS011;36212;48.838;9.142;2023-01-15T09:16:01;1.17;;;1.08;;
2544;SDS011;36212;48.838;9.142;2023-01-15T09:18:36;1.02;;;1.02;;
2544;SDS011;36212;48.838;9.142;2023-01-15T09:21:18;1.10;;;1.00;;
2544;SDS011;36212;48.838;9.142;2023-01-15T09:23:55;0.93;;;0.93;;
2544;SDS011;36212;48.838;9.142;2023-01-15T09:26:32;1.00;;;1.00;;
2544;SDS011;36212;48.838;9.142;2023-01-15T09:29:09;1.10;;;1.00;;
2544;SDS011;36212;48.838;9.142;2023-01-15T09:31:41;1.13;;;1.00;;
2544;SDS011;36212;48.838;9.142;2023-01-15T09:34:14;1.20;;;1.20;;
2544;SDS011;36212;48.838;9.142;2023-01-15T09:36:46;0.90;;;0.90;;
2544;SDS011;36212;48.838;9.142;2023-01-15T09:39:21;1.08;;;0.98;;
2544;SDS011;36212;48.838;9.142;2023-01-15T09:57:23;1.00;;;1.00;;
2544;SDS011;36212;48.838;9.142;2023-01-15T09:59:58;1.20;;;1.10;;
2544;SDS011;36212;48.838;9.142;2023-01-15T10:08:35;1.20;;;1.10;;
2544;SDS011;36212;48.838;9.142;2023-01-15T10:14:02;1.05;;;1.00;;
2544;SDS011;36212;48.838;9.142;2023-01-15T10:16:44;1.20;;;1.10;;
2544;SDS011;36212;48.838;9.142;2023-01-15T10:19:18;1.10;;;1.00;;
2544;SDS011;36212;48.838;9.142;2023-01-15T10:21:56;1.00;;;1.00;;
2544;SDS011;36212;48.838;9.142;2023-01-15T10:24:54;0.93;;;0.93;;
2544;SDS011;36212;48.838;9.142;2023-01-15T10:27:31;0.90;;;0.90;;
2544;SDS011;36212;48.838;9.142;2023-01-15T10:33:10;1.70;;;1.10;;
2544;SDS011;36212;48.838;9.142;2023-01-15T10:36:23;1.00;;;1.00;;
2544;SDS011;36212;48.838;9.142;2023-01-15T10:39:21;1.00;;;1.00;;
2544;SDS011;36212;48.838;9.142;2023-01-15T10:45:24;1.35;;;0.85;;
2544;SDS011;36212;48.838;9.142;2023-01-15T10:48:14;1.10;;;1.10;;
2544;SDS011;36212;48.838;9.142;2023-01-15T10:51:19;1.00;;;1.00;;
2544;SDS011;36212;48.838;9.142;2023-01-15T10:54:01;1.00;;;1.00;;
2544;SDS011;36212;48.838;9.142;2023-01-15T10:57:11;1.00;;;1.00;;
2544;SDS011;36212;48.838;9.142;2023-01-15T11:00:05;1.10;;;1.00;;
2544;SDS011;36212;48.838;9.142;2023-01-15T11:02:46;1.20;;;1.10;;
2544;SDS011;36212;48.838;9.142;2023-01-15T11:05:31;1.00;;;1.00;;
2544;SDS011;36212;48.838;9.142;2023-01-15T11:08:13;1.52;;;1.42;;
2544;SDS011;36212;48.838;9.142;2023-01-15T11:11:20;1.35;;;1.10;;
2544;SDS011;36212;48.838;9.142;2023-01-15T11:14:50;1.20;;;1.10;;
2544;SDS011;36212;48.838;9.142;2023-01-15T11:18:01;1.08;;;1.08;;
2544;SDS011;36212;48.838;9.142;2023-01-15T11:21:14;1.85;;;1.67;;
2544;SDS011;36212;48.838;9.142;2023-01-15T11:23:51;1.15;;;1.15;;
2544;SDS011;36212;48.838;9.142;2023-01-15T11:26:31;1.45;;;1.35;;
2544;SDS011;36212;48.838;9.142;2023-01-15T11:29:13;1.52;;;1.42;;
2544;SDS011;36212;48.838;9.142;2023-01-15T11:32:00;2.20;;;2.10;;
2544;SDS011;36212;48.838;9.142;2023-01-15T11:34:33;1.70;;;1.60;;
2544;SDS011;36212;48.838;9.142;2023-01-15T11:37:09;1.45;;;1.35;;
2544;SDS011;36212;48.838;9.142;2023-01-15T11:39:50;1.65;;;1.55;;
2544;SDS011;36212;48.838;9.142;2023-01-15T11:42:28;1.33;;;1.23;;
2544;SDS011;36212;48.838;9.142;2023-01-15T11:45:46;1.65;;;1.55;;
2544;SDS011;36212;48.838;9.142;2023-01-15T11:48:57;1.52;;;1.42;;
2544;SDS011;36212;48.838;9.142;2023-01-15T11:52:12;1.45;;;1.35;;
2544;SDS011;36212;48.838;9.142;2023-01-15T11:54:53;3.17;;;2.88;;
2544;SDS011;36212;48.838;9.142;2023-01-15T11:57:29;3.10;;;2.40;;
2544;SDS011;36212;48.838;9.142;2023-01-15T12:00:06;2.17;;;2.03;;
2544;SDS011;36212;48.838;9.142;2023-01-15T12:03:11;1.50;;;1.40;;
2544;SDS011;36212;48.838;9.142;2023-01-15T12:05:58;2.38;;;2.17;;
2544;SDS011;36212;48.838;9.142;2023-01-15T12:08:49;3.97;;;2.88;;
2544;SDS011;36212;48.838;9.142;2023-01-15T12:14:58;1.40;;;1.30;;
2544;SDS011;36212;48.838;9.142;2023-01-15T12:18:10;1.40;;;1.30;;
2544;SDS011;36212;48.838;9.142;2023-01-15T12:21:37;3.58;;;3.38;;
2544;SDS011;36212;48.838;9.142;2023-01-15T12:28:05;1.63;;;1.30;;
2544;SDS011;36212;48.838;9.142;2023-01-15T12:31:10;1.63;;;1.52;;
2544;SDS011;36212;48.838;9.142;2023-01-15T12:33:56;1.30;;;1.20;;
2544;SDS011;36212;48.838;9.142;2023-01-15T12:36:57;2.60;;;1.30;;
2544;SDS011;36212;48.838;9.142;2023-01-15T12:39:39;1.10;;;1.10;;
2544;SDS011;36212;48.838;9.142;2023-01-15T12:42:44;1.60;;;1.50;;
2544;SDS011;36212;48.838;9.142;2023-01-15T12:45:58;2.88;;;2.67;;
2544;SDS011;36212;48.838;9.142;2023-01-15T12:48:37;2.30;;;2.20;;
2544;SDS011;36212;48.838;9.142;2023-01-15T12:51:22;4.00;;;1.60;;
2544;SDS011;36212;48.838;9.142;2023-01-15T12:54:10;1.33;;;1.23;;
2544;SDS011;36212;48.838;9.142;2023-01-15T13:06:02;1.73;;;1.42;;
2544;SDS011;36212;48.838;9.142;2023-01-15T13:08:41;1.40;;;1.30;;
2544;SDS011;36212;48.838;9.142;2023-01-15T13:11:33;3.47;;;1.38;;
2544;SDS011;36212;48.838;9.142;2023-01-15T13:14:11;1.70;;;1.60;;
2544;SDS011;36212;48.838;9.142;2023-01-15T13:19:48;1.38;;;1.27;;
2544;SDS011;36212;48.838;9.142;2023-01-15T13:22:41;1.40;;;1.30;;
2544;SDS011;36212;48.838;9.142;2023-01-15T13:35:00;1.92;;;1.77;;
2544;SDS011;36212;48.838;9.142;2023-01-15T13:37:58;1.77;;;1.52;;
2544;SDS011;36212;48.838;9.142;2023-01-15T13:40:37;1.70;;;1.60;;
2544;SDS011;36212;48.838;9.142;2023-01-15T13:43:35;1.63;;;1.52;;
2544;SDS011;36212;48.838;9.142;2023-01-15T13:46:18;1.70;;;1.58;;
2544;SDS011;36212;48.838;9.142;2023-01-15T13:48:51;2.15;;;2.00;;
2544;SDS011;36212;48.838;9.142;2023-01-15T13:54:02;1.75;;;1.65;;
2544;SDS011;36212;48.838;9.142;2023-01-15T13:56:42;2.15;;;1.38;;
2544;SDS011;36212;48.838;9.142;2023-01-15T14:02:22;3.90;;;1.70;;
2544;SDS011;36212;48.838;9.142;2023-01-15T14:08:01;1.30;;;1.20;;
2544;SDS011;36212;48.838;9.142;2023-01-15T14:10:45;3.47;;;1.40;;
2544;SDS011;36212;48.838;9.142;2023-01-15T14:35:33;1.48;;;1.38;;
2544;SDS011;36212;48.838;9.142;2023-01-15T14:38:17;1.73;;;1.60;;
2544;SDS011;36212;48.838;9.142;2023-01-15T14:40:57;4.60;;;1.55;;
2544;SDS011;36212;48.838;9.142;2023-01-15T14:43:35;1.45;;;1.35;;
2544;SDS011;36212;48.838;9.142;2023-01-15T14:49:26;3.55;;;1.30;;
2544;SDS011;36212;48.838;9.142;2023-01-15T14:52:22;1.80;;;1.70;;
2544;SDS011;36212;48.838;9.142;2023-01-15T14:54:55;2.10;;;1.48;;
2544;SDS011;36212;48.838;9.142;2023-01-15T14:57:29;1.60;;;1.50;;
2544;SDS011;36212;48.838;9.142;2023-01-15T15:00:05;1.40;;;1.30;;
2544;SDS011;36212;48.838;9.142;2023-01-15T15:02:47;3.22;;;1.48;;
2544;SDS011;36212;48.838;9.142;2023-01-15T15:05:20;2.20;;;1.77;;
2544;SDS011;36212;48.838;9.142;2023-01-15T15:07:54;1.55;;;1.40;;
2544;SDS011;36212;48.838;9.142;2023-01-15T15:10:31;1.70;;;1.60;;
2544;SDS011;36212;48.838;9.142;2023-01-15T15:18:56;2.55;;;1.40;;
2544;SDS011;36212;48.838;9.142;2023-01-15T15:21:48;1.33;;;1.23;;
2544;SDS011;36212;48.838;9.142;2023-01-15T15:24:23;2.35;;;1.40;;
2544;SDS011;36212;48.838;9.142;2023-01-15T15:27:13;2.00;;;1.52;;
2544;SDS011;36212;48.838;9.142;2023-01-15T15:29:50;4.65;;;1.67;;
2544;SDS011;36212;48.838;9.142;2023-01-15T15:32:36;1.90;;;1.80;;
2544;SDS011;36212;48.838;9.142;2023-01-15T15:35:24;2.13;;;1.95;;
2544;SDS011;36212;48.838;9.142;2023-01-15T15:38:01;2.58;;;2.38;;
2544;SDS011;36212;48.838;9.142;2023-01-15T15:40:44;1.85;;;1.60;;
2544;SDS011;36212;48.838;9.142;2023-01-15T15:43:38;1.85;;;1.75;;
2544;SDS011;36212;48.838;9.142;2023-01-15T15:47:01;2.20;;;1.50;;
2544;SDS011;36212;48.838;9.142;2023-01-15T15:50:32;1.85;;;1.70;;
2544;SDS011;36212;48.838;9.142;2023-01-15T15:53:14;2.33;;;1.70;;
2544;SDS011;36212;48.838;9.142;2023-01-15T15:55:48;1.60;;;1.48;;
2544;SDS011;36212;48.838;9.142;2023-01-15T15:58:29;3.28;;;1.40;;
2544;SDS011;36212;48.838;9.142;2023-01-15T16:01:10;4.45;;;2.33;;
2544;SDS011;36212;48.838;9.142;2023-01-15T16:03:46;1.98;;;1.85;;
2544;SDS011;36212;48.838;9.142;2023-01-15T16:06:20;1.70;;;1.50;;
2544;SDS011;36212;48.838;9.142;2023-01-15T16:08:57;2.35;;;2.15;;
2544;SDS011;36212;48.838;9.142;2023-01-15T16:11:38;2.10;;;2.00;;
2544;SDS011;36212;48.838;9.142;2023-01-15T16:14:12;2.42;;;2.30;;
2544;SDS011;36212;48.838;9.142;2023-01-15T16:16:48;2.20;;;2.00;;
2544;SDS011;36212;48.838;9.142;2023-01-15T16:19:24;2.03;;;1.80;;
2544;SDS011;36212;48.838;9.142;2023-01-15T16:22:00;3.47;;;2.38;;
2544;SDS011;36212;48.838;9.142;2023-01-15T16:24:35;2.30;;;2.10;;
2544;SDS011;36212;48.838;9.142;2023-01-15T16:27:12;3.20;;;1.90;;
2544;SDS011;36212;48.838;9.142;2023-01-15T16:29:56;2.00;;;1.90;;
2544;SDS011;36212;48.838;9.142;2023-01-15T16:32:29;2.35;;;2.25;;
2544;SDS011;36212;48.838;9.142;2023-01-15T16:35:13;1.70;;;1.60;;
2544;SDS011;36212;48.838;9.142;2023-01-15T16:37:54;1.50;;;1.40;;
2544;SDS011;36212;48.838;9.142;2023-01-15T16:40:34;4.30;;;1.92;;
2544;SDS011;36212;48.838;9.142;2023-01-15T16:43:14;3.10;;;2.47;;
2544;SDS011;36212;48.838;9.142;2023-01-15T16:48:47;2.25;;;2.05;;
2544;SDS011;36212;48.838;9.142;2023-01-15T16:51:42;4.10;;;3.70;;
2544;SDS011;36212;48.838;9.142;2023-01-15T16:54:58;2.85;;;2.30;;
2544;SDS011;36212;48.838;9.142;2023-01-15T16:57:24;3.95;;;2.90;;
2544;SDS011;36212;48.838;9.142;2023-01-15T17:00:04;4.05;;;2.90;;
2544;SDS011;36212;48.838;9.142;2023-01-15T17:02:57;2.65;;;2.40;;
2544;SDS011;36212;48.838;9.142;2023-01-15T17:05:31;2.78;;;2.53;;
2544;SDS011;36212;48.838;9.142;2023-01-15T17:08:42;3.10;;;2.28;;
2544;SDS011;36212;48.838;9.142;2023-01-15T17:11:20;2.65;;;2.22;;
2544;SDS011;36212;48.838;9.142;2023-01-15T17:19:55;2.78;;;1.90;;
2544;SDS011;36212;48.838;9.142;2023-01-15T17:22:29;3.05;;;2.28;;
2544;SDS011;36212;48.838;9.142;2023-01-15T17:28:16;2.63;;;2.42;;
2544;SDS011;36212;48.838;9.142;2023-01-15T17:30:56;4.70;;;2.75;;
2544;SDS011;36212;48.838;9.142;2023-01-15T17:33:32;2.45;;;2.25;;
2544;SDS011;36212;48.838;9.142;2023-01-15T17:36:05;2.40;;;2.13;;
2544;SDS011;36212;48.838;9.142;2023-01-15T17:38:39;3.60;;;3.00;;
2544;SDS011;36212;48.838;9.142;2023-01-15T17:41:15;2.53;;;2.33;;
2544;SDS011;36212;48.838;9.142;2023-01-15T17:43:51;2.45;;;2.25;;
2544;SDS011;36212;48.838;9.142;2023-01-15T17:46:27;2.65;;;2.45;;
2544;SDS011;36212;48.838;9.142;2023-01-15T17:49:00;2.63;;;2.42;;
2544;SDS011;36212;48.838;9.142;2023-01-15T17:51:34;2.42;;;2.20;;
2544;SDS011;36212;48.838;9.142;2023-01-15T17:54:07;4.97;;;2.00;;
2544;SDS011;36212;48.838;9.142;2023-01-15T17:56:40;4.07;;;2.20;;
2544;SDS011;36212;48.838;9.142;2023-01-15T18:00:08;3.25;;;2.95;;
2544;SDS011;36212;48.838;9.142;2023-01-15T18:03:21;4.82;;;3.85;;
2544;SDS011;36212;48.838;9.142;2023-01-15T18:06:33;2.85;;;2.50;;
2544;SDS011;36212;48.838;9.142;2023-01-15T18:09:09;4.28;;;3.55;;
2544;SDS011;36212;48.838;9.142;2023-01-15T18:11:46;2.95;;;2.30;;
2544;SDS011;36212;48.838;9.142;2023-01-15T18:14:19;1.92;;;1.83;;
2544;SDS011;36212;48.838;9.142;2023-01-15T18:16:55;3.47;;;2.30;;
2544;SDS011;36212;48.838;9.142;2023-01-15T18:19:31;1.88;;;1.70;;
2544;SDS011;36212;48.838;9.142;2023-01-15T18:22:08;2.65;;;2.00;;
2544;SDS011;36212;48.838;9.142;2023-01-15T18:24:43;2.90;;;2.28;;
2544;SDS011;36212;48.838;9.142;2023-01-15T18:27:17;3.05;;;2.33;;
2544;SDS011;36212;48.838;9.142;2023-01-15T18:29:51;2.28;;;2.10;;
2544;SDS011;36212;48.838;9.142;2023-01-15T18:32:28;2.30;;;1.90;;
2544;SDS011;36212;48.838;9.142;2023-01-15T18:35:04;5.00;;;2.35;;
2544;SDS011;36212;48.838;9.142;2023-01-15T18:37:38;5.30;;;2.70;;
2544;SDS011;36212;48.838;9.142;2023-01-15T18:40:15;4.63;;;1.80;;
2544;SDS011;36212;48.838;9.142;2023-01-15T18:42:48;2.03;;;1.92;;
2544;SDS011;36212;48.838;9.142;2023-01-15T18:46:00;2.55;;;2.03;;
2544;SDS011;36212;48.838;9.142;2023-01-15T18:49:24;4.60;;;2.08;;
2544;SDS011;36212;48.838;9.142;2023-01-15T18:51:58;2.60;;;1.85;;
2544;SDS011;36212;48.838;9.142;2023-01-15T18:55:09;2.05;;;1.85;;